sensor_id;sensor_type;location;lat;lon;timestamp;P1;durP1;ratioP1;P2;durP2;ratioP2
8574;SDS011;4325;42.520;27.448;2024-01-27T00:01:14;5.80;;;4.00;;
8574;SDS011;4325;42.520;27.448;2024-01-27T00:03:41;6.73;;;3.77;;
8574;SDS011;4325;42.520;27.448;2024-01-27T00:06:10;7.70;;;3.70;;
8574;SDS011;4325;42.520;27.448;2024-01-27T00:08:37;4.93;;;3.33;;
8574;SDS011;4325;42.520;27.448;2024-01-27T00:11:04;4.80;;;3.30;;
8574;SDS011;4325;42.520;27.448;2024-01-27T00:13:31;7.20;;;4.03;;
8574;SDS011;4325;42.520;27.448;2024-01-27T00:15:58;6.47;;;3.97;;
8574;SDS011;4325;42.520;27.448;2024-01-27T00:18:25;5.70;;;3.60;;
8574;SDS011;4325;42.520;27.448;2024-01-27T00:20:52;6.20;;;4.50;;
8574;SDS011;4325;42.520;27.448;2024-01-27T00:23:21;6.30;;;3.90;;
8574;SDS011;4325;42.520;27.448;2024-01-27T00:25:48;5.63;;;4.00;;
8574;SDS011;4325;42.520;27.448;2024-01-27T00:28:15;9.37;;;4.37;;
8574;SDS011;4325;42.520;27.448;2024-01-27T00:30:42;6.23;;;3.80;;
8574;SDS011;4325;42.520;27.448;2024-01-27T00:33:09;6.50;;;4.33;;
8574;SDS011;4325;42.520;27.448;2024-01-27T00:35:36;7.43;;;4.13;;
8574;SDS011;4325;42.520;27.448;2024-01-27T00:38:04;8.00;;;4.30;;
8574;SDS011;4325;42.520;27.448;2024-01-27T00:40:32;7.57;;;4.37;;
8574;SDS011;4325;42.520;27.448;2024-01-27T00:42:59;6.17;;;4.17;;
8574;SDS011;4325;42.520;27.448;2024-01-27T00:45:28;7.87;;;4.07;;
8574;SDS011;4325;42.520;27.448;2024-01-27T00:47:55;8.60;;;5.27;;
8574;SDS011;4325;42.520;27.448;2024-01-27T00:50:22;6.73;;;4.50;;
8574;SDS011;4325;42.520;27.448;2024-01-27T00:52:50;7.53;;;4.40;;
8574;SDS011;4325;42.520;27.448;2024-01-27T00:55:17;6.23;;;4.20;;
8574;SDS011;4325;42.520;27.448;2024-01-27T00:57:45;11.00;;;5.07;;
8574;SDS011;4325;42.520;27.448;2024-01-27T01:00:13;6.90;;;4.73;;
8574;SDS011;4325;42.520;27.448;2024-01-27T01:02:41;7.17;;;5.03;;
8574;SDS011;4325;42.520;27.448;2024-01-27T01:05:08;7.17;;;5.47;;
8574;SDS011;4325;42.520;27.448;2024-01-27T01:07:35;9.47;;;4.53;;
8574;SDS011;4325;42.520;27.448;2024-01-27T01:10:03;7.33;;;4.27;;
8574;SDS011;4325;42.520;27.448;2024-01-27T01:12:30;7.23;;;4.47;;
8574;SDS011;4325;42.520;27.448;2024-01-27T01:14:59;10.20;;;4.60;;
8574;SDS011;4325;42.520;27.448;2024-01-27T01:17:26;6.97;;;4.80;;
8574;SDS011;4325;42.520;27.448;2024-01-27T01:19:53;8.57;;;4.70;;
8574;SDS011;4325;42.520;27.448;2024-01-27T01:22:20;5.73;;;4.17;;
8574;SDS011;4325;42.520;27.448;2024-01-27T01:24:47;13.77;;;5.80;;
8574;SDS011;4325;42.520;27.448;2024-01-27T01:27:14;7.97;;;5.00;;
8574;SDS011;4325;42.520;27.448;2024-01-27T01:29:44;8.47;;;4.77;;
8574;SDS011;4325;42.520;27.448;2024-01-27T01:32:12;8.93;;;5.10;;
8574;SDS011;4325;42.520;27.448;2024-01-27T01:34:40;9.57;;;4.73;;
8574;SDS011;4325;42.520;27.448;2024-01-27T01:37:07;7.07;;;4.73;;
8574;SDS011;4325;42.520;27.448;2024-01-27T01:39:34;7.47;;;4.30;;
8574;SDS011;4325;42.520;27.448;2024-01-27T01:42:01;10.77;;;4.80;;
8574;SDS011;4325;42.520;27.448;2024-01-27T01:44:29;9.77;;;5.40;;
8574;SDS011;4325;42.520;27.448;2024-01-27T01:46:57;9.93;;;4.57;;
8574;SDS011;4325;42.520;27.448;2024-01-27T01:49:26;9.83;;;5.23;;
8574;SDS011;4325;42.520;27.448;2024-01-27T01:51:53;8.33;;;5.10;;
8574;SDS011;4325;42.520;27.448;2024-01-27T01:54:21;6.00;;;4.63;;
8574;SDS011;4325;42.520;27.448;2024-01-27T01:56:53;13.27;;;4.90;;
8574;SDS011;4325;42.520;27.448;2024-01-27T01:59:21;8.27;;;5.10;;
8574;SDS011;4325;42.520;27.448;2024-01-27T02:01:48;7.03;;;4.90;;
8574;SDS011;4325;42.520;27.448;2024-01-27T02:04:15;10.10;;;5.90;;
8574;SDS011;4325;42.520;27.448;2024-01-27T02:06:44;10.67;;;5.40;;
8574;SDS011;4325;42.520;27.448;2024-01-27T02:09:11;7.67;;;5.43;;
8574;SDS011;4325;42.520;27.448;2024-01-27T02:11:38;8.13;;;5.27;;
8574;SDS011;4325;42.520;27.448;2024-01-27T02:14:05;7.27;;;5.07;;
8574;SDS011;4325;42.520;27.448;2024-01-27T02:16:33;9.97;;;5.03;;
8574;SDS011;4325;42.520;27.448;2024-01-27T02:19:00;9.93;;;5.10;;
8574;SDS011;4325;42.520;27.448;2024-01-27T02:21:27;7.57;;;4.57;;
8574;SDS011;4325;42.520;27.448;2024-01-27T02:23:55;7.10;;;4.50;;
8574;SDS011;4325;42.520;27.448;2024-01-27T02:26:24;9.30;;;5.23;;
8574;SDS011;4325;42.520;27.448;2024-01-27T02:28:51;10.27;;;4.80;;
8574;SDS011;4325;42.520;27.448;2024-01-27T02:31:18;6.97;;;4.33;;
8574;SDS011;4325;42.520;27.448;2024-01-27T02:33:45;7.40;;;5.10;;
8574;SDS011;4325;42.520;27.448;2024-01-27T02:36:12;9.33;;;5.37;;
8574;SDS011;4325;42.520;27.448;2024-01-27T02:38:39;7.20;;;4.20;;
8574;SDS011;4325;42.520;27.448;2024-01-27T02:41:06;9.10;;;4.30;;
8574;SDS011;4325;42.520;27.448;2024-01-27T02:43:34;10.33;;;4.87;;
8574;SDS011;4325;42.520;27.448;2024-01-27T02:46:01;11.80;;;4.97;;
8574;SDS011;4325;42.520;27.448;2024-01-27T02:48:28;6.67;;;4.53;;
8574;SDS011;4325;42.520;27.448;2024-01-27T02:50:55;10.23;;;4.70;;
8574;SDS011;4325;42.520;27.448;2024-01-27T02:53:22;9.37;;;6.10;;
8574;SDS011;4325;42.520;27.448;2024-01-27T02:55:49;15.50;;;9.37;;
8574;SDS011;4325;42.520;27.448;2024-01-27T02:58:17;23.87;;;11.60;;
8574;SDS011;4325;42.520;27.448;2024-01-27T03:00:45;18.53;;;10.07;;
8574;SDS011;4325;42.520;27.448;2024-01-27T03:03:12;15.87;;;9.07;;
8574;SDS011;4325;42.520;27.448;2024-01-27T03:05:40;14.93;;;8.33;;
8574;SDS011;4325;42.520;27.448;2024-01-27T03:08:07;10.50;;;6.90;;
8574;SDS011;4325;42.520;27.448;2024-01-27T03:10:34;7.50;;;5.30;;
8574;SDS011;4325;42.520;27.448;2024-01-27T03:13:01;9.33;;;4.83;;
8574;SDS011;4325;42.520;27.448;2024-01-27T03:15:28;12.00;;;5.83;;
8574;SDS011;4325;42.520;27.448;2024-01-27T03:17:57;9.13;;;4.50;;
8574;SDS011;4325;42.520;27.448;2024-01-27T03:20:24;10.10;;;4.50;;
8574;SDS011;4325;42.520;27.448;2024-01-27T03:22:51;11.33;;;4.40;;
8574;SDS011;4325;42.520;27.448;2024-01-27T03:25:18;4.90;;;4.17;;
8574;SDS011;4325;42.520;27.448;2024-01-27T03:27:45;8.07;;;4.33;;
8574;SDS011;4325;42.520;27.448;2024-01-27T03:30:12;14.13;;;4.03;;
8574;SDS011;4325;42.520;27.448;2024-01-27T03:32:39;9.67;;;4.00;;
8574;SDS011;4325;42.520;27.448;2024-01-27T03:35:08;6.37;;;3.97;;
8574;SDS011;4325;42.520;27.448;2024-01-27T03:37:36;5.80;;;4.17;;
8574;SDS011;4325;42.520;27.448;2024-01-27T03:40:03;6.17;;;3.87;;
8574;SDS011;4325;42.520;27.448;2024-01-27T03:42:30;8.23;;;4.53;;
8574;SDS011;4325;42.520;27.448;2024-01-27T03:44:57;8.03;;;4.13;;
8574;SDS011;4325;42.520;27.448;2024-01-27T03:47:24;6.63;;;3.87;;
8574;SDS011;4325;42.520;27.448;2024-01-27T03:49:52;6.43;;;4.10;;
8574;SDS011;4325;42.520;27.448;2024-01-27T03:52:20;6.07;;;4.40;;
8574;SDS011;4325;42.520;27.448;2024-01-27T03:54:47;6.90;;;4.33;;
8574;SDS011;4325;42.520;27.448;2024-01-27T03:57:14;7.90;;;3.90;;
8574;SDS011;4325;42.520;27.448;2024-01-27T03:59:41;10.60;;;4.37;;
8574;SDS011;4325;42.520;27.448;2024-01-27T04:02:08;7.93;;;4.60;;
8574;SDS011;4325;42.520;27.448;2024-01-27T04:04:35;7.30;;;4.13;;
8574;SDS011;4325;42.520;27.448;2024-01-27T04:07:02;6.30;;;4.43;;
8574;SDS011;4325;42.520;27.448;2024-01-27T04:09:31;9.00;;;5.33;;
8574;SDS011;4325;42.520;27.448;2024-01-27T04:11:58;8.53;;;4.90;;
8574;SDS011;4325;42.520;27.448;2024-01-27T04:14:25;12.37;;;4.87;;
8574;SDS011;4325;42.520;27.448;2024-01-27T04:16:52;6.83;;;4.30;;
8574;SDS011;4325;42.520;27.448;2024-01-27T04:19:19;8.80;;;4.20;;
8574;SDS011;4325;42.520;27.448;2024-01-27T04:21:46;7.97;;;4.33;;
8574;SDS011;4325;42.520;27.448;2024-01-27T04:24:13;8.73;;;4.70;;
8574;SDS011;4325;42.520;27.448;2024-01-27T04:26:42;7.07;;;4.00;;
8574;SDS011;4325;42.520;27.448;2024-01-27T04:29:09;6.90;;;4.13;;
8574;SDS011;4325;42.520;27.448;2024-01-27T04:31:40;7.13;;;4.27;;
8574;SDS011;4325;42.520;27.448;2024-01-27T04:34:07;5.37;;;3.67;;
8574;SDS011;4325;42.520;27.448;2024-01-27T04:36:35;8.07;;;4.20;;
8574;SDS011;4325;42.520;27.448;2024-01-27T04:39:03;5.83;;;3.53;;
8574;SDS011;4325;42.520;27.448;2024-01-27T04:41:30;8.30;;;3.97;;
8574;SDS011;4325;42.520;27.448;2024-01-27T04:43:59;5.47;;;3.87;;
8574;SDS011;4325;42.520;27.448;2024-01-27T04:46:26;5.83;;;4.27;;
8574;SDS011;4325;42.520;27.448;2024-01-27T04:48:53;7.63;;;4.10;;
8574;SDS011;4325;42.520;27.448;2024-01-27T04:51:21;7.80;;;4.23;;
8574;SDS011;4325;42.520;27.448;2024-01-27T04:53:48;5.33;;;3.33;;
8574;SDS011;4325;42.520;27.448;2024-01-27T04:56:15;7.87;;;4.00;;
8574;SDS011;4325;42.520;27.448;2024-01-27T04:58:42;7.73;;;4.20;;
8574;SDS011;4325;42.520;27.448;2024-01-27T05:01:10;12.03;;;4.93;;
8574;SDS011;4325;42.520;27.448;2024-01-27T05:03:37;7.60;;;4.43;;
8574;SDS011;4325;42.520;27.448;2024-01-27T05:06:07;7.27;;;4.43;;
8574;SDS011;4325;42.520;27.448;2024-01-27T05:08:34;6.33;;;3.83;;
8574;SDS011;4325;42.520;27.448;2024-01-27T05:11:02;7.77;;;4.27;;
8574;SDS011;4325;42.520;27.448;2024-01-27T05:13:29;7.40;;;3.90;;
8574;SDS011;4325;42.520;27.448;2024-01-27T05:15:56;5.93;;;3.70;;
8574;SDS011;4325;42.520;27.448;2024-01-27T05:18:24;7.33;;;4.47;;
8574;SDS011;4325;42.520;27.448;2024-01-27T05:20:51;7.13;;;4.27;;
8574;SDS011;4325;42.520;27.448;2024-01-27T05:23:18;8.27;;;4.43;;
8574;SDS011;4325;42.520;27.448;2024-01-27T05:25:45;9.30;;;4.67;;
8574;SDS011;4325;42.520;27.448;2024-01-27T05:28:13;5.50;;;3.70;;
8574;SDS011;4325;42.520;27.448;2024-01-27T05:30:40;7.13;;;4.67;;
8574;SDS011;4325;42.520;27.448;2024-01-27T05:33:08;5.30;;;3.70;;
8574;SDS011;4325;42.520;27.448;2024-01-27T05:35:36;10.23;;;6.13;;
8574;SDS011;4325;42.520;27.448;2024-01-27T05:38:03;12.17;;;6.80;;
8574;SDS011;4325;42.520;27.448;2024-01-27T05:40:30;11.73;;;6.87;;
8574;SDS011;4325;42.520;27.448;2024-01-27T05:42:57;7.73;;;4.63;;
8574;SDS011;4325;42.520;27.448;2024-01-27T05:45:24;12.40;;;6.90;;
8574;SDS011;4325;42.520;27.448;2024-01-27T05:47:52;12.33;;;6.73;;
8574;SDS011;4325;42.520;27.448;2024-01-27T05:50:19;5.93;;;4.57;;
8574;SDS011;4325;42.520;27.448;2024-01-27T05:52:47;13.40;;;5.17;;
8574;SDS011;4325;42.520;27.448;2024-01-27T05:55:14;8.77;;;5.07;;
8574;SDS011;4325;42.520;27.448;2024-01-27T05:57:42;10.33;;;5.80;;
8574;SDS011;4325;42.520;27.448;2024-01-27T06:00:10;9.13;;;5.53;;
8574;SDS011;4325;42.520;27.448;2024-01-27T06:02:38;8.67;;;5.03;;
8574;SDS011;4325;42.520;27.448;2024-01-27T06:05:06;10.50;;;4.60;;
8574;SDS011;4325;42.520;27.448;2024-01-27T06:07:34;10.47;;;5.50;;
8574;SDS011;4325;42.520;27.448;2024-01-27T06:10:07;7.83;;;4.97;;
8574;SDS011;4325;42.520;27.448;2024-01-27T06:12:35;5.43;;;4.03;;
8574;SDS011;4325;42.520;27.448;2024-01-27T06:15:04;6.93;;;4.20;;
8574;SDS011;4325;42.520;27.448;2024-01-27T06:17:34;7.20;;;4.03;;
8574;SDS011;4325;42.520;27.448;2024-01-27T06:20:01;9.03;;;5.23;;
8574;SDS011;4325;42.520;27.448;2024-01-27T06:22:29;12.80;;;4.80;;
8574;SDS011;4325;42.520;27.448;2024-01-27T06:24:56;10.87;;;6.33;;
8574;SDS011;4325;42.520;27.448;2024-01-27T06:27:25;11.13;;;6.60;;
8574;SDS011;4325;42.520;27.448;2024-01-27T06:29:52;10.00;;;6.00;;
8574;SDS011;4325;42.520;27.448;2024-01-27T06:32:19;10.77;;;6.60;;
8574;SDS011;4325;42.520;27.448;2024-01-27T06:34:46;10.23;;;5.63;;
8574;SDS011;4325;42.520;27.448;2024-01-27T06:37:13;13.50;;;6.60;;
8574;SDS011;4325;42.520;27.448;2024-01-27T06:39:40;10.73;;;6.00;;
8574;SDS011;4325;42.520;27.448;2024-01-27T06:42:07;11.87;;;6.07;;
8574;SDS011;4325;42.520;27.448;2024-01-27T06:44:35;10.47;;;6.40;;
8574;SDS011;4325;42.520;27.448;2024-01-27T06:47:02;8.60;;;5.30;;
8574;SDS011;4325;42.520;27.448;2024-01-27T06:49:29;9.83;;;5.40;;
8574;SDS011;4325;42.520;27.448;2024-01-27T06:51:56;7.90;;;5.17;;
8574;SDS011;4325;42.520;27.448;2024-01-27T06:54:23;7.27;;;4.77;;
8574;SDS011;4325;42.520;27.448;2024-01-27T06:56:51;7.80;;;4.33;;
8574;SDS011;4325;42.520;27.448;2024-01-27T06:59:18;8.60;;;4.83;;
8574;SDS011;4325;42.520;27.448;2024-01-27T07:01:47;11.20;;;4.83;;
8574;SDS011;4325;42.520;27.448;2024-01-27T07:04:14;8.83;;;6.07;;
8574;SDS011;4325;42.520;27.448;2024-01-27T07:06:42;9.20;;;4.93;;
8574;SDS011;4325;42.520;27.448;2024-01-27T07:09:09;10.00;;;4.07;;
8574;SDS011;4325;42.520;27.448;2024-01-27T07:11:36;5.93;;;4.23;;
8574;SDS011;4325;42.520;27.448;2024-01-27T07:14:04;7.03;;;4.20;;
8574;SDS011;4325;42.520;27.448;2024-01-27T07:16:31;9.13;;;4.83;;
8574;SDS011;4325;42.520;27.448;2024-01-27T07:19:01;7.67;;;4.50;;
8574;SDS011;4325;42.520;27.448;2024-01-27T07:21:28;7.57;;;4.47;;
8574;SDS011;4325;42.520;27.448;2024-01-27T07:23:56;6.77;;;4.00;;
8574;SDS011;4325;42.520;27.448;2024-01-27T07:26:23;7.97;;;4.60;;
8574;SDS011;4325;42.520;27.448;2024-01-27T07:28:50;9.43;;;5.40;;
8574;SDS011;4325;42.520;27.448;2024-01-27T07:31:17;9.30;;;6.90;;
8574;SDS011;4325;42.520;27.448;2024-01-27T07:33:45;12.97;;;5.80;;
8574;SDS011;4325;42.520;27.448;2024-01-27T07:36:13;14.23;;;8.27;;
8574;SDS011;4325;42.520;27.448;2024-01-27T07:38:41;11.03;;;6.67;;
8574;SDS011;4325;42.520;27.448;2024-01-27T07:41:08;11.03;;;6.67;;
8574;SDS011;4325;42.520;27.448;2024-01-27T07:43:35;9.53;;;5.40;;
8574;SDS011;4325;42.520;27.448;2024-01-27T07:46:02;11.67;;;6.63;;
8574;SDS011;4325;42.520;27.448;2024-01-27T07:48:29;23.83;;;12.70;;
8574;SDS011;4325;42.520;27.448;2024-01-27T07:50:56;9.93;;;5.97;;
8574;SDS011;4325;42.520;27.448;2024-01-27T07:53:25;10.37;;;6.27;;
8574;SDS011;4325;42.520;27.448;2024-01-27T07:55:52;5.57;;;4.00;;
8574;SDS011;4325;42.520;27.448;2024-01-27T07:58:21;6.40;;;4.63;;
8574;SDS011;4325;42.520;27.448;2024-01-27T08:00:48;13.50;;;7.60;;
8574;SDS011;4325;42.520;27.448;2024-01-27T08:03:15;7.03;;;4.43;;
8574;SDS011;4325;42.520;27.448;2024-01-27T08:05:42;7.33;;;4.60;;
8574;SDS011;4325;42.520;27.448;2024-01-27T08:08:09;8.93;;;5.63;;
8574;SDS011;4325;42.520;27.448;2024-01-27T08:10:38;7.80;;;4.43;;
8574;SDS011;4325;42.520;27.448;2024-01-27T08:13:05;9.03;;;4.33;;
8574;SDS011;4325;42.520;27.448;2024-01-27T08:15:32;5.53;;;3.87;;
8574;SDS011;4325;42.520;27.448;2024-01-27T08:17:59;11.23;;;5.00;;
8574;SDS011;4325;42.520;27.448;2024-01-27T08:20:26;8.40;;;4.53;;
8574;SDS011;4325;42.520;27.448;2024-01-27T08:22:53;9.37;;;5.40;;
8574;SDS011;4325;42.520;27.448;2024-01-27T08:25:20;10.37;;;4.97;;
8574;SDS011;4325;42.520;27.448;2024-01-27T08:27:49;8.63;;;4.60;;
8574;SDS011;4325;42.520;27.448;2024-01-27T08:30:16;8.23;;;4.80;;
8574;SDS011;4325;42.520;27.448;2024-01-27T08:32:44;9.17;;;3.43;;
8574;SDS011;4325;42.520;27.448;2024-01-27T08:35:11;7.30;;;3.83;;
8574;SDS011;4325;42.520;27.448;2024-01-27T08:37:38;6.53;;;3.97;;
8574;SDS011;4325;42.520;27.448;2024-01-27T08:40:06;6.20;;;4.70;;
8574;SDS011;4325;42.520;27.448;2024-01-27T08:42:32;7.17;;;3.93;;
8574;SDS011;4325;42.520;27.448;2024-01-27T08:45:01;6.07;;;3.73;;
8574;SDS011;4325;42.520;27.448;2024-01-27T08:47:29;7.20;;;4.17;;
8574;SDS011;4325;42.520;27.448;2024-01-27T08:49:56;9.30;;;4.53;;
8574;SDS011;4325;42.520;27.448;2024-01-27T08:52:23;9.70;;;4.50;;
8574;SDS011;4325;42.520;27.448;2024-01-27T08:54:50;9.90;;;4.00;;
8574;SDS011;4325;42.520;27.448;2024-01-27T08:57:17;8.20;;;3.50;;
8574;SDS011;4325;42.520;27.448;2024-01-27T08:59:44;5.63;;;3.13;;
8574;SDS011;4325;42.520;27.448;2024-01-27T09:02:13;9.00;;;3.47;;
8574;SDS011;4325;42.520;27.448;2024-01-27T09:04:40;5.50;;;3.47;;
8574;SDS011;4325;42.520;27.448;2024-01-27T09:07:07;6.03;;;3.43;;
8574;SDS011;4325;42.520;27.448;2024-01-27T09:09:34;4.67;;;3.40;;
8574;SDS011;4325;42.520;27.448;2024-01-27T09:12:03;6.80;;;3.50;;
8574;SDS011;4325;42.520;27.448;2024-01-27T09:14:30;5.80;;;3.73;;
8574;SDS011;4325;42.520;27.448;2024-01-27T09:16:58;5.47;;;3.83;;
8574;SDS011;4325;42.520;27.448;2024-01-27T09:19:27;8.77;;;3.83;;
8574;SDS011;4325;42.520;27.448;2024-01-27T09:21:54;8.43;;;3.73;;
8574;SDS011;4325;42.520;27.448;2024-01-27T09:24:21;7.67;;;4.47;;
8574;SDS011;4325;42.520;27.448;2024-01-27T09:26:48;11.87;;;5.53;;
8574;SDS011;4325;42.520;27.448;2024-01-27T09:29:16;10.20;;;5.10;;
8574;SDS011;4325;42.520;27.448;2024-01-27T09:31:44;6.13;;;4.30;;
8574;SDS011;4325;42.520;27.448;2024-01-27T09:34:11;7.03;;;4.17;;
8574;SDS011;4325;42.520;27.448;2024-01-27T09:36:40;6.07;;;4.27;;
8574;SDS011;4325;42.520;27.448;2024-01-27T09:39:07;5.17;;;3.17;;
8574;SDS011;4325;42.520;27.448;2024-01-27T09:41:34;6.33;;;4.17;;
8574;SDS011;4325;42.520;27.448;2024-01-27T09:44:02;12.43;;;5.00;;
8574;SDS011;4325;42.520;27.448;2024-01-27T09:46:30;10.47;;;4.80;;
8574;SDS011;4325;42.520;27.448;2024-01-27T09:48:57;7.80;;;3.93;;
8574;SDS011;4325;42.520;27.448;2024-01-27T09:51:25;5.30;;;3.37;;
8574;SDS011;4325;42.520;27.448;2024-01-27T09:53:54;7.03;;;3.37;;
8574;SDS011;4325;42.520;27.448;2024-01-27T09:56:22;6.37;;;3.87;;
8574;SDS011;4325;42.520;27.448;2024-01-27T09:58:50;6.27;;;4.10;;
8574;SDS011;4325;42.520;27.448;2024-01-27T10:01:20;15.23;;;3.93;;
8574;SDS011;4325;42.520;27.448;2024-01-27T10:03:50;5.73;;;4.13;;
8574;SDS011;4325;42.520;27.448;2024-01-27T10:06:18;9.10;;;5.20;;
8574;SDS011;4325;42.520;27.448;2024-01-27T10:08:46;5.47;;;3.83;;
8574;SDS011;4325;42.520;27.448;2024-01-27T10:11:21;6.07;;;4.23;;
8574;SDS011;4325;42.520;27.448;2024-01-27T10:13:56;8.23;;;5.17;;
8574;SDS011;4325;42.520;27.448;2024-01-27T10:16:25;8.30;;;4.50;;
8574;SDS011;4325;42.520;27.448;2024-01-27T10:18:58;8.00;;;4.73;;
8574;SDS011;4325;42.520;27.448;2024-01-27T10:21:26;10.67;;;4.90;;
8574;SDS011;4325;42.520;27.448;2024-01-27T10:23:53;9.70;;;5.70;;
8574;SDS011;4325;42.520;27.448;2024-01-27T10:26:22;14.27;;;6.43;;
8574;SDS011;4325;42.520;27.448;2024-01-27T10:28:52;11.70;;;7.13;;
8574;SDS011;4325;42.520;27.448;2024-01-27T10:31:20;4.23;;;3.60;;
8574;SDS011;4325;42.520;27.448;2024-01-27T10:33:52;3.57;;;2.80;;
8574;SDS011;4325;42.520;27.448;2024-01-27T10:36:19;2.30;;;2.10;;
8574;SDS011;4325;42.520;27.448;2024-01-27T10:38:46;4.40;;;1.70;;
8574;SDS011;4325;42.520;27.448;2024-01-27T10:41:16;3.30;;;1.97;;
8574;SDS011;4325;42.520;27.448;2024-01-27T10:43:50;4.43;;;2.60;;
8574;SDS011;4325;42.520;27.448;2024-01-27T10:46:19;5.87;;;3.20;;
8574;SDS011;4325;42.520;27.448;2024-01-27T10:48:48;5.57;;;4.10;;
8574;SDS011;4325;42.520;27.448;2024-01-27T10:51:18;6.57;;;3.60;;
8574;SDS011;4325;42.520;27.448;2024-01-27T10:53:55;6.63;;;3.50;;
8574;SDS011;4325;42.520;27.448;2024-01-27T10:56:29;5.53;;;3.90;;
8574;SDS011;4325;42.520;27.448;2024-01-27T10:58:58;5.37;;;3.73;;
8574;SDS011;4325;42.520;27.448;2024-01-27T11:01:26;10.60;;;3.00;;
8574;SDS011;4325;42.520;27.448;2024-01-27T11:03:57;6.07;;;3.70;;
8574;SDS011;4325;42.520;27.448;2024-01-27T11:06:25;8.63;;;3.83;;
8574;SDS011;4325;42.520;27.448;2024-01-27T11:08:55;12.87;;;5.90;;
8574;SDS011;4325;42.520;27.448;2024-01-27T11:11:23;10.53;;;4.50;;
8574;SDS011;4325;42.520;27.448;2024-01-27T11:13:51;9.13;;;4.60;;
8574;SDS011;4325;42.520;27.448;2024-01-27T11:16:19;5.33;;;4.13;;
8574;SDS011;4325;42.520;27.448;2024-01-27T11:18:47;8.40;;;4.50;;
8574;SDS011;4325;42.520;27.448;2024-01-27T11:21:15;13.07;;;5.77;;
8574;SDS011;4325;42.520;27.448;2024-01-27T11:23:42;11.13;;;4.77;;
8574;SDS011;4325;42.520;27.448;2024-01-27T11:26:16;12.67;;;7.40;;
8574;SDS011;4325;42.520;27.448;2024-01-27T11:28:45;18.00;;;8.90;;
8574;SDS011;4325;42.520;27.448;2024-01-27T11:31:15;17.50;;;9.20;;
8574;SDS011;4325;42.520;27.448;2024-01-27T11:33:44;19.00;;;8.43;;
8574;SDS011;4325;42.520;27.448;2024-01-27T11:36:20;16.67;;;7.83;;
8574;SDS011;4325;42.520;27.448;2024-01-27T11:38:48;15.23;;;7.37;;
8574;SDS011;4325;42.520;27.448;2024-01-27T11:41:26;9.40;;;6.13;;
8574;SDS011;4325;42.520;27.448;2024-01-27T11:43:53;13.10;;;6.80;;
8574;SDS011;4325;42.520;27.448;2024-01-27T11:46:22;12.90;;;6.17;;
8574;SDS011;4325;42.520;27.448;2024-01-27T11:48:49;16.37;;;8.63;;
8574;SDS011;4325;42.520;27.448;2024-01-27T11:51:17;12.70;;;6.87;;
8574;SDS011;4325;42.520;27.448;2024-01-27T11:53:44;17.13;;;8.23;;
8574;SDS011;4325;42.520;27.448;2024-01-27T11:56:13;10.67;;;5.60;;
8574;SDS011;4325;42.520;27.448;2024-01-27T11:58:45;14.87;;;6.60;;
8574;SDS011;4325;42.520;27.448;2024-01-27T12:01:13;14.27;;;8.10;;
8574;SDS011;4325;42.520;27.448;2024-01-27T12:03:42;13.33;;;6.77;;
8574;SDS011;4325;42.520;27.448;2024-01-27T12:06:09;10.27;;;5.20;;
8574;SDS011;4325;42.520;27.448;2024-01-27T12:08:36;9.30;;;4.67;;
8574;SDS011;4325;42.520;27.448;2024-01-27T12:11:03;9.87;;;4.73;;
8574;SDS011;4325;42.520;27.448;2024-01-27T12:13:30;9.67;;;4.77;;
8574;SDS011;4325;42.520;27.448;2024-01-27T12:15:57;9.50;;;4.67;;
8574;SDS011;4325;42.520;27.448;2024-01-27T12:18:43;9.10;;;5.60;;
8574;SDS011;4325;42.520;27.448;2024-01-27T12:21:10;9.90;;;5.73;;
8574;SDS011;4325;42.520;27.448;2024-01-27T12:23:48;9.37;;;5.53;;
8574;SDS011;4325;42.520;27.448;2024-01-27T12:26:16;8.20;;;4.47;;
8574;SDS011;4325;42.520;27.448;2024-01-27T12:28:45;9.70;;;4.60;;
8574;SDS011;4325;42.520;27.448;2024-01-27T12:31:12;8.70;;;5.40;;
8574;SDS011;4325;42.520;27.448;2024-01-27T12:33:49;8.77;;;4.93;;
8574;SDS011;4325;42.520;27.448;2024-01-27T12:36:17;8.37;;;5.33;;
8574;SDS011;4325;42.520;27.448;2024-01-27T12:38:53;9.03;;;5.30;;
8574;SDS011;4325;42.520;27.448;2024-01-27T12:41:20;10.10;;;5.57;;
8574;SDS011;4325;42.520;27.448;2024-01-27T12:43:47;9.00;;;5.17;;
8574;SDS011;4325;42.520;27.448;2024-01-27T12:46:15;8.83;;;5.00;;
8574;SDS011;4325;42.520;27.448;2024-01-27T12:48:42;11.53;;;6.33;;
8574;SDS011;4325;42.520;27.448;2024-01-27T12:51:11;9.83;;;5.60;;
8574;SDS011;4325;42.520;27.448;2024-01-27T12:53:39;7.97;;;4.93;;
8574;SDS011;4325;42.520;27.448;2024-01-27T12:56:08;11.87;;;6.07;;
8574;SDS011;4325;42.520;27.448;2024-01-27T12:58:36;10.53;;;6.50;;
8574;SDS011;4325;42.520;27.448;2024-01-27T13:01:03;11.93;;;6.97;;
8574;SDS011;4325;42.520;27.448;2024-01-27T13:03:30;11.80;;;6.53;;
8574;SDS011;4325;42.520;27.448;2024-01-27T13:05:58;16.33;;;8.37;;
8574;SDS011;4325;42.520;27.448;2024-01-27T13:08:27;12.93;;;7.50;;
8574;SDS011;4325;42.520;27.448;2024-01-27T13:10:55;13.47;;;7.17;;
8574;SDS011;4325;42.520;27.448;2024-01-27T13:13:22;12.57;;;6.23;;
8574;SDS011;4325;42.520;27.448;2024-01-27T13:15:49;10.20;;;6.73;;
8574;SDS011;4325;42.520;27.448;2024-01-27T13:18:16;15.23;;;6.47;;
8574;SDS011;4325;42.520;27.448;2024-01-27T13:20:43;7.47;;;5.20;;
8574;SDS011;4325;42.520;27.448;2024-01-27T13:23:10;7.67;;;5.13;;
8574;SDS011;4325;42.520;27.448;2024-01-27T13:25:38;8.67;;;5.87;;
8574;SDS011;4325;42.520;27.448;2024-01-27T13:28:05;7.97;;;5.60;;
8574;SDS011;4325;42.520;27.448;2024-01-27T13:30:36;9.23;;;5.97;;
8574;SDS011;4325;42.520;27.448;2024-01-27T13:33:03;13.33;;;5.83;;
8574;SDS011;4325;42.520;27.448;2024-01-27T13:35:30;8.97;;;5.30;;
8574;SDS011;4325;42.520;27.448;2024-01-27T13:37:58;9.17;;;5.27;;
8574;SDS011;4325;42.520;27.448;2024-01-27T13:40:25;14.07;;;5.57;;
8574;SDS011;4325;42.520;27.448;2024-01-27T13:42:53;11.90;;;7.27;;
8574;SDS011;4325;42.520;27.448;2024-01-27T13:45:20;8.63;;;5.63;;
8574;SDS011;4325;42.520;27.448;2024-01-27T13:47:47;9.67;;;5.80;;
8574;SDS011;4325;42.520;27.448;2024-01-27T13:50:14;10.27;;;6.13;;
8574;SDS011;4325;42.520;27.448;2024-01-27T13:52:41;9.00;;;5.93;;
8574;SDS011;4325;42.520;27.448;2024-01-27T13:55:10;8.63;;;5.90;;
8574;SDS011;4325;42.520;27.448;2024-01-27T13:57:38;8.60;;;5.57;;
8574;SDS011;4325;42.520;27.448;2024-01-27T14:00:07;8.83;;;5.87;;
8574;SDS011;4325;42.520;27.448;2024-01-27T14:02:35;8.87;;;5.77;;
8574;SDS011;4325;42.520;27.448;2024-01-27T14:05:02;7.73;;;5.40;;
8574;SDS011;4325;42.520;27.448;2024-01-27T14:07:30;10.60;;;6.53;;
8574;SDS011;4325;42.520;27.448;2024-01-27T14:09:58;9.63;;;5.40;;
8574;SDS011;4325;42.520;27.448;2024-01-27T14:12:26;8.90;;;5.27;;
8574;SDS011;4325;42.520;27.448;2024-01-27T14:14:53;15.00;;;7.50;;
8574;SDS011;4325;42.520;27.448;2024-01-27T14:17:29;14.83;;;8.50;;
8574;SDS011;4325;42.520;27.448;2024-01-27T14:19:56;12.80;;;6.87;;
8574;SDS011;4325;42.520;27.448;2024-01-27T14:22:23;10.23;;;6.00;;
8574;SDS011;4325;42.520;27.448;2024-01-27T14:24:50;8.47;;;4.93;;
8574;SDS011;4325;42.520;27.448;2024-01-27T14:27:17;10.53;;;5.50;;
8574;SDS011;4325;42.520;27.448;2024-01-27T14:29:51;12.23;;;5.90;;
8574;SDS011;4325;42.520;27.448;2024-01-27T14:32:18;8.13;;;5.50;;
8574;SDS011;4325;42.520;27.448;2024-01-27T14:34:47;10.50;;;4.93;;
8574;SDS011;4325;42.520;27.448;2024-01-27T14:37:14;8.50;;;5.20;;
8574;SDS011;4325;42.520;27.448;2024-01-27T14:39:42;8.13;;;5.50;;
8574;SDS011;4325;42.520;27.448;2024-01-27T14:42:11;11.30;;;6.40;;
8574;SDS011;4325;42.520;27.448;2024-01-27T14:44:38;7.90;;;5.10;;
8574;SDS011;4325;42.520;27.448;2024-01-27T14:47:05;9.70;;;5.73;;
8574;SDS011;4325;42.520;27.448;2024-01-27T14:49:34;14.17;;;6.87;;
8574;SDS011;4325;42.520;27.448;2024-01-27T14:52:04;12.13;;;6.50;;
8574;SDS011;4325;42.520;27.448;2024-01-27T14:54:32;12.60;;;7.93;;
8574;SDS011;4325;42.520;27.448;2024-01-27T14:57:02;10.23;;;7.30;;
8574;SDS011;4325;42.520;27.448;2024-01-27T14:59:29;12.30;;;7.60;;
8574;SDS011;4325;42.520;27.448;2024-01-27T15:01:56;9.20;;;5.83;;